createdAt,value
2018-04-24T00:01:21.923Z,15.20
2018-04-24T00:03:51.955Z,15.10
2018-04-24T00:06:21.567Z,14.90
2018-04-24T00:08:51.347Z,14.90
2018-04-24T00:11:21.237Z,14.90
2018-04-24T00:13:50.533Z,14.60
2018-04-24T00:16:19.826Z,14.60
2018-04-24T00:18:49.546Z,14.70
2018-04-24T00:21:18.993Z,14.90
2018-04-24T00:23:48.245Z,15.00
2018-04-24T00:26:17.838Z,15.10
2018-04-24T00:28:47.823Z,15.10
2018-04-24T00:31:19.292Z,14.70
2018-04-24T00:33:50.084Z,14.80
2018-04-24T00:36:19.486Z,14.80
2018-04-24T00:38:49.304Z,14.90
2018-04-24T00:41:19.279Z,14.90
2018-04-24T00:43:49.218Z,14.70
2018-04-24T00:46:18.805Z,14.80
2018-04-24T00:48:48.732Z,15.00
2018-04-24T00:51:19.125Z,15.00
2018-04-24T00:53:49.158Z,14.90
2018-04-24T00:56:18.640Z,14.90
2018-04-24T00:58:47.906Z,14.70
2018-04-24T01:01:17.173Z,14.80
2018-04-24T01:03:50.036Z,14.90
2018-04-24T01:06:20.633Z,14.60
2018-04-24T01:08:49.991Z,14.60
2018-04-24T01:11:20.043Z,14.50
2018-04-24T01:13:49.774Z,14.70
2018-04-24T01:16:19.464Z,14.80
2018-04-24T01:18:51.206Z,14.80
2018-04-24T01:21:21.668Z,14.70
2018-04-24T01:23:51.480Z,14.40
2018-04-24T01:26:21.225Z,14.40
2018-04-24T01:28:50.541Z,14.30
2018-04-24T01:31:19.733Z,14.40
2018-04-24T01:33:49.599Z,14.20
2018-04-24T01:36:19.339Z,13.90
2018-04-24T01:38:50.006Z,14.00
2018-04-24T01:41:20.173Z,14.00
2018-04-24T01:43:50.239Z,14.30
2018-04-24T01:46:19.694Z,14.20
2018-04-24T01:48:49.391Z,14.20
2018-04-24T01:51:18.671Z,14.20
2018-04-24T01:53:48.111Z,14.10
2018-04-24T01:56:18.182Z,14.20
2018-04-24T01:58:47.716Z,14.00
2018-04-24T02:01:17.415Z,14.00
2018-04-24T02:03:47.361Z,14.10
2018-04-24T02:06:16.548Z,14.00
2018-04-24T02:08:46.178Z,14.10
2018-04-24T02:11:16.929Z,14.20
2018-04-24T02:13:46.291Z,14.10
2018-04-24T02:16:16.049Z,14.30
2018-04-24T02:18:45.986Z,14.20
2018-04-24T02:21:15.354Z,14.40
2018-04-24T02:23:44.549Z,14.40
2018-04-24T02:26:14.740Z,14.50
2018-04-24T02:28:44.029Z,14.50
2018-04-24T02:31:13.767Z,14.50
2018-04-24T02:33:44.752Z,14.20
2018-04-24T02:36:14.436Z,14.20
2018-04-24T02:38:44.098Z,14.10
2018-04-24T02:41:14.132Z,14.10
2018-04-24T02:43:44.362Z,14.10
2018-04-24T02:46:14.379Z,14.00
2018-04-24T02:48:44.094Z,14.00
2018-04-24T02:51:14.252Z,13.90
2018-04-24T02:53:43.707Z,13.90
2018-04-24T02:56:12.889Z,13.80
2018-04-24T02:58:43.043Z,14.00
2018-04-24T03:01:13.189Z,14.00
2018-04-24T03:03:42.662Z,14.00
2018-04-24T03:06:12.355Z,14.10
2018-04-24T03:08:42.546Z,13.80
2018-04-24T03:11:12.319Z,14.00
2018-04-24T03:13:42.523Z,14.20
2018-04-24T03:16:12.299Z,14.20
2018-04-24T03:18:42.232Z,14.40
2018-04-24T03:21:12.306Z,14.40
2018-04-24T03:23:42.689Z,14.30
2018-04-24T03:26:12.103Z,14.30
2018-04-24T03:28:41.834Z,14.30
2018-04-24T03:31:11.831Z,14.30
2018-04-24T03:33:40.953Z,14.30
2018-04-24T03:36:10.775Z,14.20
2018-04-24T03:38:40.051Z,14.10
2018-04-24T03:41:09.589Z,13.90
2018-04-24T03:43:39.232Z,14.00
2018-04-24T03:46:08.883Z,14.00
2018-04-24T03:48:38.670Z,13.70
2018-04-24T03:51:08.505Z,13.60
2018-04-24T03:53:37.890Z,13.60
2018-04-24T03:56:07.291Z,13.60
2018-04-24T05:23:40.273Z,13.70
2018-04-24T05:26:11.397Z,14.20
2018-04-24T05:28:55.661Z,14.30
2018-04-24T05:31:25.529Z,14.20
2018-04-24T05:33:55.832Z,14.30
2018-04-24T05:36:27.326Z,14.30
2018-04-24T05:39:13.209Z,14.20
2018-04-24T05:41:42.753Z,14.10
2018-04-24T05:44:13.716Z,14.40
2018-04-24T05:47:02.807Z,14.40
2018-04-24T05:49:59.816Z,14.30
2018-04-24T05:55:22.909Z,14.10
2018-04-24T05:58:09.153Z,14.10
2018-04-24T06:00:38.874Z,14.10
2018-04-24T06:03:08.386Z,14.00
2018-04-24T06:05:39.156Z,13.80
2018-04-24T06:08:13.067Z,13.80
2018-04-24T06:11:01.593Z,13.90
2018-04-24T06:13:31.769Z,14.10
2018-04-24T06:16:12.837Z,14.20
2018-04-24T06:18:43.948Z,14.20
2018-04-24T06:21:13.629Z,14.40
2018-04-24T06:23:43.222Z,14.40
2018-04-24T06:26:13.695Z,14.50
2018-04-24T06:28:44.325Z,14.70
2018-04-24T06:31:13.822Z,14.70
2018-04-24T06:33:48.983Z,14.60
2018-04-24T06:36:18.776Z,14.60
2018-04-24T06:38:48.361Z,14.00
2018-04-24T06:41:19.910Z,13.70
2018-04-24T06:43:49.130Z,13.80
2018-04-24T06:46:19.174Z,13.90
2018-04-24T06:49:00.982Z,14.50
2018-04-24T06:51:31.566Z,14.80
2018-04-24T06:54:02.275Z,15.00
2018-04-24T06:56:36.685Z,15.30
2018-04-24T06:59:07.314Z,15.30
2018-04-24T07:01:37.857Z,15.70
2018-04-24T07:10:51.656Z,16.00
2018-04-24T07:13:21.220Z,16.00
2018-04-24T07:15:50.390Z,16.30
2018-04-24T07:18:20.194Z,16.40
2018-04-24T07:20:50.528Z,17.00
2018-04-24T07:23:20.412Z,17.30
2018-04-24T07:25:50.552Z,17.40
2018-04-24T07:28:20.673Z,17.80
2018-04-24T07:30:52.090Z,18.20
2018-04-24T07:33:57.085Z,18.00
2018-04-24T07:36:28.716Z,17.70
2018-04-24T07:38:59.422Z,17.60
2018-04-24T07:41:28.817Z,17.60
2018-04-24T07:43:58.200Z,17.90
2018-04-24T07:46:34.349Z,18.10
2018-04-24T07:49:32.368Z,19.20
2018-04-24T07:52:08.349Z,19.20
2018-04-24T07:54:38.468Z,19.90
2018-04-24T07:57:09.620Z,19.10
2018-04-24T07:59:38.780Z,19.00
2018-04-24T08:02:08.626Z,19.60
2018-04-24T08:04:38.440Z,20.10
2018-04-24T08:07:22.254Z,19.70
2018-04-24T08:10:27.155Z,18.70
2018-04-24T08:13:05.749Z,19.80
2018-04-24T08:18:56.231Z,22.10
2018-04-24T08:21:31.245Z,23.60
2018-04-24T08:24:05.941Z,28.70
2018-04-24T08:26:37.341Z,28.60
2018-04-24T08:29:08.543Z,29.90
2018-04-24T08:31:38.124Z,28.10
2018-04-24T08:34:09.619Z,27.20
2018-04-24T08:36:39.535Z,26.90
2018-04-24T08:39:12.298Z,25.50
2018-04-24T08:41:41.931Z,24.70
2018-04-24T08:44:15.491Z,24.20
2018-04-24T08:46:46.153Z,24.20
2018-04-24T08:49:16.184Z,24.50
2018-04-24T08:51:46.037Z,24.20
2018-04-24T08:54:15.956Z,24.00
2018-04-24T08:56:47.882Z,26.40
2018-04-24T08:59:18.250Z,26.40
2018-04-24T09:01:49.219Z,28.20
2018-04-24T09:04:18.991Z,27.70
2018-04-24T09:06:49.460Z,25.70
2018-04-24T09:09:27.314Z,24.40
2018-04-24T09:12:00.546Z,23.50
2018-04-24T09:14:31.548Z,23.10
2018-04-24T09:17:02.052Z,24.20
2018-04-24T09:22:53.938Z,25.50
2018-04-24T09:25:36.684Z,26.70
2018-04-24T09:28:06.290Z,27.00
2018-04-24T09:30:37.851Z,27.60
2018-04-24T09:33:07.887Z,27.60
2018-04-24T09:35:38.511Z,26.90
2018-04-24T09:38:09.942Z,28.30
2018-04-24T09:40:41.270Z,29.40
2018-04-24T09:43:10.849Z,28.80
2018-04-24T09:45:41.119Z,27.00
2018-04-24T09:48:12.178Z,25.50
2018-04-24T09:50:48.705Z,24.80
2018-04-24T09:53:19.607Z,24.60
2018-04-24T09:55:49.896Z,25.80
2018-04-24T09:58:19.415Z,26.30
2018-04-24T10:00:50.644Z,26.30
2018-04-24T10:03:28.964Z,25.10
2018-04-24T10:06:06.860Z,24.70
2018-04-24T10:08:37.262Z,25.90
2018-04-24T10:11:07.025Z,25.80
2018-04-24T10:13:40.546Z,26.40
2018-04-24T10:16:12.713Z,26.40
2018-04-24T10:18:42.456Z,27.00
2018-04-24T10:21:18.317Z,26.10
2018-04-24T10:23:48.516Z,25.60
2018-04-24T10:26:18.159Z,26.40
2018-04-24T10:28:49.089Z,24.80
2018-04-24T10:31:19.261Z,25.80
2018-04-24T10:33:49.850Z,26.70
2018-04-24T10:36:21.097Z,27.10
2018-04-24T10:38:50.502Z,27.00
2018-04-24T10:41:19.833Z,25.70
2018-04-24T10:43:50.503Z,24.40
2018-04-24T10:46:22.495Z,23.80
2018-04-24T10:48:55.360Z,24.30
2018-04-24T10:51:24.836Z,23.50
2018-04-24T10:53:55.378Z,23.30
2018-04-24T10:56:25.680Z,21.40
2018-04-24T10:59:01.169Z,21.10
2018-04-24T11:01:32.673Z,21.80
2018-04-24T11:04:11.853Z,21.80
2018-04-24T11:06:46.191Z,21.70
2018-04-24T11:12:42.621Z,20.50
2018-04-24T11:15:26.279Z,20.60
2018-04-24T11:18:01.504Z,19.90
2018-04-24T11:20:31.335Z,20.20
2018-04-24T11:23:01.212Z,20.00
2018-04-24T11:25:30.376Z,20.20
2018-04-24T11:27:59.802Z,20.40
2018-04-24T11:30:29.456Z,20.50
2018-04-24T11:33:00.228Z,19.90
2018-04-24T11:35:29.762Z,19.80
2018-04-24T11:38:06.883Z,20.00
2018-04-24T11:40:52.632Z,20.10
2018-04-24T11:43:21.994Z,20.10
2018-04-24T11:45:53.718Z,20.10
2018-04-24T11:48:25.876Z,20.20
2018-04-24T11:50:55.215Z,20.20
2018-04-24T11:53:27.848Z,21.60
2018-04-24T11:56:20.523Z,21.60
2018-04-24T11:59:02.604Z,22.20
2018-04-24T12:01:35.999Z,20.90
2018-04-24T12:04:06.215Z,20.90
2018-04-24T12:06:37.092Z,20.20
2018-04-24T12:09:07.357Z,20.20
2018-04-24T12:11:37.783Z,20.30
2018-04-24T12:14:12.213Z,20.10
2018-04-24T12:16:42.294Z,19.80
2018-04-24T12:19:12.217Z,20.20
2018-04-24T12:21:41.737Z,20.00
2018-04-24T12:24:12.925Z,19.90
2018-04-24T12:26:58.951Z,19.80
2018-04-24T12:29:29.025Z,20.30
2018-04-24T12:31:59.399Z,20.70
2018-04-24T12:34:37.199Z,20.90
2018-04-24T12:37:22.579Z,21.40
2018-04-24T12:39:53.605Z,21.30
2018-04-24T12:42:23.951Z,21.30
2018-04-24T12:44:58.358Z,21.10
2018-04-24T12:47:27.976Z,21.10
2018-04-24T12:49:59.020Z,21.50
2018-04-24T12:52:29.466Z,21.10
2018-04-24T12:55:02.519Z,21.00
2018-04-24T12:57:34.922Z,21.00
2018-04-24T13:00:32.971Z,21.30
2018-04-24T13:03:09.017Z,21.50
2018-04-24T13:05:44.401Z,21.30
2018-04-24T13:08:18.136Z,21.30
2018-04-24T13:13:51.051Z,22.10
2018-04-24T13:16:29.209Z,22.10
2018-04-24T13:19:00.059Z,21.60
2018-04-24T13:21:33.604Z,21.90
2018-04-24T13:24:04.582Z,21.90
2018-04-24T13:26:41.488Z,21.70
2018-04-24T13:29:11.040Z,21.70
2018-04-24T13:31:41.377Z,21.90
2018-04-24T13:34:29.649Z,21.90
2018-04-24T13:40:21.579Z,21.90
2018-04-24T13:42:51.265Z,21.30
2018-04-24T13:45:23.164Z,21.30
2018-04-24T13:47:53.723Z,21.60
2018-04-24T13:50:23.972Z,21.70
2018-04-24T13:53:01.274Z,21.90
2018-04-24T13:55:32.350Z,21.70
2018-04-24T13:58:01.851Z,21.70
2018-04-24T14:00:31.341Z,21.40
2018-04-24T14:03:01.305Z,21.30
2018-04-24T14:05:31.180Z,21.50
2018-04-24T14:11:24.463Z,21.90
2018-04-24T14:16:34.241Z,22.10
2018-04-24T14:19:04.522Z,21.80
2018-04-24T14:21:34.546Z,21.80
2018-04-24T14:24:09.920Z,21.90
2018-04-24T14:26:40.311Z,21.70
2018-04-24T14:29:42.062Z,21.50
2018-04-24T14:32:13.118Z,21.90
2018-04-24T14:34:48.373Z,21.90
2018-04-24T14:37:23.015Z,22.30
2018-04-24T14:39:53.503Z,22.10
2018-04-24T14:42:24.315Z,22.10
2018-04-24T14:44:53.958Z,21.50
2018-04-24T14:47:24.501Z,21.60
2018-04-24T14:49:57.351Z,21.80
2018-04-24T14:52:27.712Z,21.70
2018-04-24T14:58:21.327Z,21.70
2018-04-24T15:00:51.904Z,21.80
2018-04-24T15:03:22.753Z,21.70
2018-04-24T15:12:21.242Z,21.60
2018-04-24T15:14:51.180Z,21.60
2018-04-24T15:17:33.325Z,21.70
2018-04-24T15:20:05.324Z,21.80
2018-04-24T15:22:36.243Z,21.70
2018-04-24T15:25:06.255Z,21.70
2018-04-24T15:27:36.604Z,21.80
2018-04-24T15:30:09.168Z,22.00
2018-04-24T15:32:48.934Z,22.00
2018-04-24T15:35:30.695Z,22.00
2018-04-24T15:38:00.726Z,21.80
2018-04-24T15:40:30.408Z,21.90
2018-04-24T15:43:00.762Z,21.60
2018-04-24T15:45:33.274Z,21.60
2018-04-24T15:48:05.993Z,21.50
2018-04-24T15:50:36.027Z,21.60
2018-04-24T15:53:06.315Z,21.50
2018-04-24T15:55:37.169Z,21.40
2018-04-24T15:58:10.077Z,21.40
2018-04-24T16:00:58.574Z,21.60
2018-04-24T16:07:48.063Z,21.60
2018-04-24T16:10:18.705Z,21.70
2018-04-24T16:12:48.161Z,21.50
2018-04-24T16:18:35.315Z,21.60
2018-04-24T16:21:05.520Z,21.60
2018-04-24T16:23:42.294Z,21.60
2018-04-24T16:26:13.908Z,21.60
2018-04-24T16:35:40.793Z,21.50
2018-04-24T16:38:12.212Z,21.50
2018-04-24T16:40:43.861Z,21.50
2018-04-24T16:49:58.956Z,21.40
2018-04-24T16:52:29.117Z,21.30
2018-04-24T16:54:58.984Z,21.40
2018-04-24T16:57:32.015Z,21.40
2018-04-24T17:02:56.673Z,21.20
2018-04-24T17:05:30.759Z,21.30
2018-04-24T17:08:06.327Z,21.20
2018-04-24T17:10:37.239Z,21.20
2018-04-24T17:13:11.596Z,21.20
2018-04-24T17:15:43.269Z,21.20
2018-04-24T17:21:35.066Z,21.00
2018-04-24T17:24:09.151Z,20.60
2018-04-24T17:30:16.328Z,20.20
2018-04-24T17:32:53.857Z,19.90
2018-04-24T17:35:23.859Z,19.90
2018-04-24T17:37:54.619Z,19.80
2018-04-24T17:40:25.286Z,19.70
2018-04-24T17:45:31.421Z,19.60
2018-04-24T17:48:02.112Z,19.40
2018-04-24T17:50:32.008Z,19.10
2018-04-24T17:53:02.197Z,18.90
2018-04-24T17:55:32.729Z,18.90
2018-04-24T17:58:03.989Z,18.40
2018-04-24T18:00:37.445Z,18.40
2018-04-24T18:03:07.212Z,18.40
2018-04-24T18:05:36.942Z,18.10
2018-04-24T18:08:07.471Z,17.80
2018-04-24T18:10:38.608Z,17.90
2018-04-24T18:13:09.100Z,17.90
2018-04-24T18:15:38.731Z,17.90
2018-04-24T18:18:08.975Z,17.90
2018-04-24T18:20:42.891Z,17.80
2018-04-24T18:23:15.751Z,17.70
2018-04-24T18:25:52.108Z,17.70
2018-04-24T18:28:52.624Z,17.50
2018-04-24T18:31:22.340Z,17.40
2018-04-24T18:33:56.568Z,17.10
2018-04-24T18:36:26.958Z,17.00
2018-04-24T18:38:57.099Z,16.80
2018-04-24T18:41:28.357Z,16.60
2018-04-24T18:43:58.044Z,16.50
2018-04-24T18:46:28.472Z,16.50
2018-04-24T18:48:58.569Z,16.40
2018-04-24T18:51:28.982Z,16.40
2018-04-24T18:54:07.095Z,16.40
2018-04-24T18:56:37.165Z,16.40
2018-04-24T18:59:08.981Z,16.10
2018-04-24T19:01:39.712Z,16.20
2018-04-24T19:04:09.677Z,16.20
2018-04-24T19:06:39.198Z,16.20
2018-04-24T19:09:08.362Z,16.20
2018-04-24T19:11:37.918Z,16.30
2018-04-24T19:14:11.919Z,16.10
2018-04-24T19:16:41.350Z,16.00
2018-04-24T19:19:15.167Z,15.90
2018-04-24T19:21:45.028Z,15.50
2018-04-24T19:24:18.920Z,15.40
2018-04-24T19:26:51.170Z,15.40
2018-04-24T19:29:22.736Z,15.40
2018-04-24T19:32:59.151Z,15.50
2018-04-24T19:35:42.567Z,15.50
2018-04-24T19:38:18.726Z,15.50
2018-04-24T19:41:56.109Z,15.50
2018-04-24T19:44:25.946Z,15.10
2018-04-24T19:46:55.389Z,15.00
2018-04-24T19:50:32.279Z,14.80
2018-04-24T19:54:25.619Z,14.90
2018-04-24T19:56:55.749Z,15.10
2018-04-24T19:59:25.748Z,15.00
2018-04-24T20:02:05.629Z,15.00
2018-04-24T20:04:39.951Z,14.90
2018-04-24T20:07:11.494Z,14.90
2018-04-24T20:09:41.111Z,14.90
2018-04-24T20:12:11.290Z,14.80
2018-04-24T20:14:41.596Z,14.70
2018-04-24T20:17:12.766Z,14.50
2018-04-24T20:19:43.628Z,14.60
2018-04-24T20:22:13.043Z,14.60
2018-04-24T20:24:43.311Z,14.70
2018-04-24T20:27:14.128Z,14.70
2018-04-24T20:29:44.239Z,14.70
2018-04-24T20:32:14.918Z,14.70
2018-04-24T20:35:24.111Z,14.70
2018-04-24T20:38:04.379Z,14.70
2018-04-24T20:40:33.948Z,14.60
2018-04-24T20:43:04.093Z,14.60
2018-04-24T20:45:33.883Z,14.40
2018-04-24T20:48:06.241Z,14.40
2018-04-24T20:50:39.571Z,14.50
2018-04-24T20:53:11.573Z,14.50
2018-04-24T20:55:41.925Z,14.50
2018-04-24T20:58:13.449Z,14.50
2018-04-24T21:00:46.241Z,14.60
2018-04-24T21:03:16.053Z,14.60
2018-04-24T21:05:46.617Z,14.60
2018-04-24T21:08:16.850Z,14.50
2018-04-24T21:10:46.798Z,14.50
2018-04-24T21:13:16.367Z,14.40
2018-04-24T21:15:46.992Z,14.40
2018-04-24T21:18:16.345Z,14.50
2018-04-24T21:20:50.686Z,14.40
2018-04-24T21:23:27.666Z,14.30
2018-04-24T21:25:59.759Z,14.30
2018-04-24T21:28:30.497Z,14.00
2018-04-24T21:31:00.959Z,14.00
2018-04-24T21:33:30.772Z,14.10
2018-04-24T21:36:00.241Z,14.00
2018-04-24T21:38:32.588Z,14.00
2018-04-24T21:41:03.065Z,14.00
2018-04-24T21:43:33.247Z,14.10
2018-04-24T21:46:03.599Z,14.10
2018-04-24T21:48:33.629Z,14.10
2018-04-24T21:51:03.110Z,14.10
2018-04-24T21:53:32.274Z,14.10
2018-04-24T21:56:02.868Z,14.10
2018-04-24T21:58:32.976Z,14.00
2018-04-24T22:01:02.393Z,14.00
2018-04-24T22:03:32.540Z,13.90
2018-04-24T22:06:01.860Z,13.90
2018-04-24T22:08:31.863Z,13.90
2018-04-24T22:11:01.931Z,13.90
2018-04-24T22:13:31.934Z,13.90
2018-04-24T22:16:01.914Z,13.90
2018-04-24T22:18:31.112Z,13.80
2018-04-24T22:21:00.853Z,13.70
2018-04-24T22:23:30.787Z,13.70
2018-04-24T22:26:00.518Z,13.70
2018-04-24T22:28:30.759Z,13.80
2018-04-24T22:31:00.465Z,13.80
2018-04-24T22:33:30.127Z,13.70
2018-04-24T22:35:59.627Z,13.70
2018-04-24T22:38:28.713Z,13.70
2018-04-24T22:40:58.560Z,13.60
2018-04-24T22:43:28.034Z,13.50
2018-04-24T22:45:58.221Z,13.40
2018-04-24T22:48:27.754Z,13.30
2018-04-24T22:50:57.448Z,13.40
2018-04-24T22:53:26.743Z,13.30
2018-04-24T22:55:56.775Z,13.30
2018-04-24T22:58:25.978Z,13.30
2018-04-24T23:00:55.675Z,13.20
2018-04-24T23:03:25.366Z,13.10
2018-04-24T23:05:54.985Z,13.10
2018-04-24T23:08:24.816Z,13.10
2018-04-24T23:10:59.648Z,13.10
2018-04-24T23:13:41.126Z,13.00
2018-04-24T23:16:22.005Z,13.00
2018-04-24T23:19:03.290Z,13.10
2018-04-24T23:21:38.444Z,13.20
2018-04-24T23:24:08.446Z,13.20
2018-04-24T23:26:38.331Z,13.30
2018-04-24T23:29:08.059Z,13.30
2018-04-24T23:31:37.655Z,13.20
2018-04-24T23:34:08.094Z,13.20
2018-04-24T23:36:37.884Z,13.20
2018-04-24T23:39:08.243Z,13.20
2018-04-24T23:41:37.595Z,13.20
2018-04-24T23:44:07.857Z,13.20
2018-04-24T23:46:37.244Z,13.10
2018-04-24T23:49:07.086Z,13.10
2018-04-24T23:51:38.200Z,13.00
2018-04-24T23:54:08.241Z,13.00
2018-04-24T23:56:37.918Z,13.00
2018-04-24T23:59:08.110Z,12.90
